Time;durP1;ratioP1;P1;durP2;ratioP2;P2;SDS_P1;SDS_P2;PMS_P1;PMS_P2;Temp;Humidity;BMP_temperature;BMP_pressure;BME280_temperature;BME280_humidity;BME280_pressure;Samples;Min_cycle;Max_cycle;Signal;HPM_P1;HPM_P2
2021/12/30 00:00:25;;;;;;;47.53;11.10;;;;;;;9.40;100.00;100935.38;5266340;28;20089;-70
2021/12/30 00:02:56;;;;;;;56.33;11.68;;;;;;;9.35;100.00;100940.16;5259496;28;20025;-70
2021/12/30 00:05:28;;;;;;;52.92;11.75;;;;;;;9.37;100.00;100943.56;5256054;28;20115;-71
2021/12/30 00:07:59;;;;;;;58.70;12.88;;;;;;;9.41;100.00;100940.59;5260903;28;20025;-70
2021/12/30 00:10:30;;;;;;;60.60;13.75;;;;;;;9.40;100.00;100940.69;5260790;28;20460;-71
2021/12/30 00:13:03;;;;;;;64.60;12.95;;;;;;;9.51;100.00;100943.47;5266655;28;20025;-71
2021/12/30 00:15:35;;;;;;;60.42;13.43;;;;;;;9.51;100.00;100939.91;5263004;28;20029;-70
2021/12/30 00:18:09;;;;;;;58.75;14.43;;;;;;;9.55;100.00;100947.59;5255421;28;20028;-71
2021/12/30 00:20:40;;;;;;;62.30;14.02;;;;;;;9.53;100.00;100938.88;5259039;28;20111;-70
2021/12/30 00:23:12;;;;;;;60.33;14.68;;;;;;;9.56;100.00;100940.47;5261024;28;20029;-71
2021/12/30 00:25:44;;;;;;;58.05;14.20;;;;;;;9.55;100.00;100946.72;5259476;28;20494;-70
2021/12/30 00:28:19;;;;;;;59.90;13.32;;;;;;;9.58;100.00;100947.38;5264664;28;20025;-71
2021/12/30 00:30:51;;;;;;;;;;;;;;;9.60;100.00;100942.78;5260839;28;20528;-71
2021/12/30 00:33:23;;;;;;;65.18;14.43;;;;;;;9.61;100.00;100941.84;5263239;28;19965;-70
2021/12/30 00:35:55;;;;;;;60.80;13.70;;;;;;;9.68;100.00;100949.38;5264605;28;20037;-71
2021/12/30 00:38:26;;;;;;;58.88;13.13;;;;;;;9.65;100.00;100957.63;5253423;28;20029;-70
2021/12/30 00:40:57;;;;;;;49.10;13.15;;;;;;;9.72;100.00;100956.19;5261210;28;20443;-71
2021/12/30 00:43:29;;;;;;;53.78;12.98;;;;;;;9.72;100.00;100966.84;5251828;28;20456;-71
2021/12/30 00:46:00;;;;;;;63.10;13.48;;;;;;;9.65;100.00;100968.28;5251864;28;20067;-70
2021/12/30 00:48:31;;;;;;;48.20;12.60;;;;;;;9.78;100.00;100959.28;5250936;28;20515;-71
2021/12/30 00:51:03;;;;;;;58.20;13.75;;;;;;;9.80;100.00;100973.34;5253673;28;20035;-71
2021/12/30 00:53:35;;;;;;;59.67;12.77;;;;;;;9.81;100.00;100964.38;5255247;28;20027;-70
2021/12/30 00:56:06;;;;;;;57.40;12.50;;;;;;;9.80;100.00;100972.50;5256630;28;20012;-71
2021/12/30 00:58:37;;;;;;;55.38;12.00;;;;;;;9.82;100.00;100976.75;5254150;28;20080;-70
2021/12/30 01:01:09;;;;;;;57.63;12.15;;;;;;;9.88;100.00;100969.28;5253894;28;20421;-71
2021/12/30 01:03:40;;;;;;;58.30;12.90;;;;;;;9.88;100.00;100974.63;5252465;28;20040;-71
2021/12/30 01:06:11;;;;;;;56.42;12.63;;;;;;;9.87;100.00;100973.75;5253208;28;20024;-71
2021/12/30 01:08:43;;;;;;;57.85;12.18;;;;;;;9.90;100.00;100970.03;5259333;28;20949;-70
2021/12/30 01:11:15;;;;;;;48.45;11.05;;;;;;;9.93;100.00;100962.69;5256274;28;20076;-70
2021/12/30 01:13:51;;;;;;;53.15;12.48;;;;;;;9.97;100.00;100973.94;5251793;28;20029;-70
2021/12/30 01:16:24;;;;;;;49.35;10.27;;;;;;;9.99;100.00;100972.00;5256676;28;20559;-71
2021/12/30 01:21:47;;;;;;;55.88;10.57;;;;;;;10.00;100.00;100979.91;5257822;28;20048;-71
2021/12/30 01:24:20;;;;;;;57.42;10.77;;;;;;;10.07;100.00;100984.78;5254333;28;20037;-70
2021/12/30 01:26:51;;;;;;;55.75;10.80;;;;;;;10.10;100.00;100987.25;5254475;28;20120;-70
2021/12/30 01:29:24;;;;;;;46.10;10.35;;;;;;;10.14;100.00;100984.25;5253608;28;20090;-70
2021/12/30 01:31:55;;;;;;;51.42;11.38;;;;;;;10.19;100.00;100983.91;5254222;28;20032;-70
2021/12/30 01:34:27;;;;;;;52.83;12.75;;;;;;;10.22;100.00;100989.03;5252480;28;20067;-70
2021/12/30 01:37:04;;;;;;;56.17;12.02;;;;;;;10.25;100.00;100986.13;5253168;28;20037;-71
2021/12/30 01:39:39;;;;;;;56.65;11.93;;;;;;;10.29;100.00;100979.59;5255554;28;20036;-71
2021/12/30 01:42:11;;;;;;;48.20;12.40;;;;;;;10.34;100.00;100996.16;5255938;28;20115;-71
2021/12/30 01:44:42;;;;;;;52.95;13.27;;;;;;;10.37;100.00;100981.75;5258581;28;20029;-71
2021/12/30 01:47:15;;;;;;;62.05;12.90;;;;;;;10.33;100.00;100983.78;5261452;28;20577;-70
2021/12/30 01:49:46;;;;;;;50.70;12.70;;;;;;;10.42;100.00;100970.75;5260046;28;20028;-70
2021/12/30 01:52:18;;;;;;;51.28;12.80;;;;;;;10.42;100.00;100981.44;5255642;28;20063;-70
2021/12/30 01:54:49;;;;;;;51.75;12.90;;;;;;;10.43;100.00;100988.44;5255869;28;20036;-70
2021/12/30 01:57:21;;;;;;;53.33;13.35;;;;;;;10.46;100.00;100988.22;5258664;28;20074;-70
2021/12/30 01:59:52;;;;;;;63.67;13.65;;;;;;;10.49;100.00;100985.31;5255320;28;20081;-70
2021/12/30 02:02:23;;;;;;;55.97;14.27;;;;;;;10.51;100.00;100973.59;5256796;28;20035;-70
2021/12/30 02:04:55;;;;;;;51.85;13.65;;;;;;;10.52;100.00;100977.09;5256701;28;20043;-71
2021/12/30 02:07:26;;;;;;;53.47;12.88;;;;;;;10.51;100.00;100980.75;5253973;28;20052;-71
2021/12/30 02:10:01;;;;;;;56.35;13.85;;;;;;;10.51;100.00;100976.25;5270948;28;20055;-70
2021/12/30 02:12:37;;;;;;;52.97;13.27;;;;;;;10.57;100.00;100966.94;5258964;28;20031;-70
2021/12/30 02:15:11;;;;;;;58.50;14.18;;;;;;;10.56;100.00;100983.91;5256497;28;20028;-70
2021/12/30 02:17:45;;;;;;;50.55;14.93;;;;;;;10.62;100.00;100980.78;5259673;28;20166;-71
2021/12/30 02:20:39;;;;;;;41.07;12.67;;;;;;;10.63;100.00;100984.31;5258733;28;20073;-71
2021/12/30 02:23:18;;;;;;;53.20;13.55;;;;;;;10.65;100.00;100987.72;5254181;28;20654;-71
2021/12/30 02:25:52;;;;;;;47.22;12.65;;;;;;;10.69;100.00;100983.84;5256307;28;20036;-71
2021/12/30 02:28:27;;;;;;;46.58;12.55;;;;;;;10.65;100.00;100985.91;5255228;28;20410;-71
2021/12/30 02:31:01;;;;;;;53.35;13.45;;;;;;;10.67;100.00;100980.44;5266488;28;20939;-70
2021/12/30 02:33:33;;;;;;;53.60;12.82;;;;;;;10.68;100.00;100987.47;5273839;28;20028;-71
2021/12/30 02:36:05;;;;;;;50.30;13.38;;;;;;;10.74;100.00;100987.03;5257190;28;20078;-71
2021/12/30 02:38:37;;;;;;;47.33;14.02;;;;;;;10.76;100.00;100993.13;5256602;28;20465;-71
2021/12/30 02:41:08;;;;;;;42.00;12.88;;;;;;;10.72;100.00;100980.94;5266508;28;20029;-71
2021/12/30 02:43:40;;;;;;;41.95;12.38;;;;;;;10.80;100.00;100989.25;5257922;28;20376;-71
2021/12/30 02:46:11;;;;;;;48.78;12.48;;;;;;;10.77;100.00;100982.28;5276535;28;20032;-71
2021/12/30 02:48:43;;;;;;;54.35;13.05;;;;;;;10.76;100.00;100979.78;5281028;28;20094;-71
2021/12/30 02:51:14;;;;;;;46.88;13.52;;;;;;;10.82;100.00;100983.78;5269589;28;20375;-71
2021/12/30 02:53:45;;;;;;;45.25;13.30;;;;;;;10.88;100.00;100986.00;5278609;28;20387;-71
2021/12/30 02:56:18;;;;;;;45.90;13.52;;;;;;;10.84;100.00;100990.72;5261091;28;20390;-71
2021/12/30 02:58:50;;;;;;;45.13;13.18;;;;;;;10.89;100.00;100993.88;5272594;28;20031;-70
2021/12/30 03:01:28;;;;;;;41.88;12.93;;;;;;;10.89;100.00;100987.69;5268509;28;20486;-71
2021/12/30 03:04:30;;;;;;;42.15;13.02;;;;;;;10.82;100.00;100997.97;5270346;28;20036;-70
2021/12/30 03:07:18;;;;;;;40.55;11.98;;;;;;;10.89;100.00;100991.22;5265416;28;21913;-71
2021/12/30 03:09:49;;;;;;;41.35;12.55;;;;;;;10.86;100.00;100998.59;5259012;28;20040;-71
2021/12/30 03:12:20;;;;;;;44.90;12.27;;;;;;;10.95;100.00;101003.25;5268029;28;20558;-70
2021/12/30 03:14:51;;;;;;;38.50;12.23;;;;;;;10.97;100.00;100996.81;5265924;28;20502;-71
2021/12/30 03:17:23;;;;;;;29.50;11.15;;;;;;;11.01;100.00;101002.78;5266571;28;20040;-70
2021/12/30 03:19:56;;;;;;;34.78;11.43;;;;;;;10.94;100.00;101002.38;5266118;28;20039;-71
2021/12/30 03:22:28;;;;;;;40.25;12.27;;;;;;;10.90;100.00;101002.75;5273892;28;20043;-70
2021/12/30 03:24:59;;;;;;;33.15;10.30;;;;;;;11.01;100.00;101001.91;5267853;28;20024;-70
2021/12/30 03:27:31;;;;;;;24.08;9.15;;;;;;;11.03;100.00;101008.00;5271846;28;20115;-70
2021/12/30 03:30:08;;;;;;;29.33;10.80;;;;;;;11.03;100.00;101005.34;5268345;28;20563;-70
2021/12/30 03:32:40;;;;;;;35.47;11.50;;;;;;;11.01;100.00;101007.25;5270134;28;20551;-70
2021/12/30 03:35:12;;;;;;;57.70;13.38;;;;;;;10.97;100.00;101007.50;5273096;28;20020;-70
2021/12/30 03:37:44;;;;;;;29.23;10.57;;;;;;;11.07;100.00;101004.97;5258153;28;20235;-70
2021/12/30 03:40:17;;;;;;;24.02;9.50;;;;;;;11.06;100.00;100999.75;5256465;28;20050;-69
2021/12/30 03:42:48;;;;;;;27.40;9.45;;;;;;;11.10;100.00;100999.41;5260918;28;20481;-70
2021/12/30 03:45:20;;;;;;;23.27;9.43;;;;;;;11.14;100.00;100998.22;5261568;28;20035;-70
2021/12/30 03:47:52;;;;;;;27.15;9.80;;;;;;;11.14;100.00;100998.22;5276219;28;20070;-70
2021/12/30 03:50:27;;;;;;;28.33;9.27;;;;;;;11.11;100.00;100995.75;5265798;28;20029;-70
2021/12/30 03:53:01;;;;;;;21.30;8.70;;;;;;;11.16;100.00;101011.41;5266544;28;20034;-70
2021/12/30 03:55:32;;;;;;;22.40;8.25;;;;;;;11.23;100.00;101003.81;5274436;28;20031;-70
2021/12/30 03:58:04;;;;;;;27.65;9.15;;;;;;;11.29;100.00;101000.66;5273623;28;20024;-70
2021/12/30 04:00:37;;;;;;;27.92;9.95;;;;;;;11.32;100.00;101000.44;5267127;28;20033;-70
2021/12/30 04:03:09;;;;;;;25.90;9.77;;;;;;;11.32;100.00;101003.94;5276250;28;20111;-70
2021/12/30 04:05:40;;;;;;;28.15;9.98;;;;;;;11.34;100.00;100999.34;5278709;28;20039;-70
2021/12/30 04:08:12;;;;;;;33.13;11.02;;;;;;;11.34;100.00;101003.84;5278369;28;20387;-70
2021/12/30 04:10:43;;;;;;;37.00;12.00;;;;;;;11.37;100.00;100995.56;5272341;28;20103;-70
2021/12/30 04:13:14;;;;;;;40.42;13.07;;;;;;;11.45;100.00;101001.19;5274815;28;20741;-70
2021/12/30 04:15:46;;;;;;;39.30;13.05;;;;;;;11.53;100.00;100998.75;5270537;28;20537;-70
2021/12/30 04:18:17;;;;;;;46.88;15.77;;;;;;;11.54;100.00;101008.50;5265121;28;20055;-69
2021/12/30 04:20:49;;;;;;;49.88;16.35;;;;;;;11.62;100.00;101017.72;5261927;28;20032;-70
2021/12/30 04:23:20;;;;;;;50.28;17.77;;;;;;;11.64;100.00;101023.78;5272777;28;20448;-70
2021/12/30 04:25:52;;;;;;;55.17;17.98;;;;;;;11.63;100.00;101019.44;5272248;28;20456;-69
2021/12/30 04:28:23;;;;;;;60.30;21.05;;;;;;;11.61;100.00;101010.69;5269075;28;20127;-69
2021/12/30 04:30:54;;;;;;;63.33;22.35;;;;;;;11.66;100.00;101020.03;5271749;28;20033;-70
2021/12/30 04:33:26;;;;;;;64.97;23.38;;;;;;;11.64;100.00;101039.81;5268547;28;20044;-69
2021/12/30 04:35:58;;;;;;;61.10;23.33;;;;;;;11.67;100.00;101024.41;5277246;28;20686;-69
2021/12/30 04:38:31;;;;;;;65.53;23.02;;;;;;;11.65;100.00;101026.34;5268670;28;20028;-69
2021/12/30 04:41:04;;;;;;;59.47;22.15;;;;;;;11.73;100.00;101029.25;5269882;28;20025;-69
2021/12/30 04:43:35;;;;;;;69.10;26.17;;;;;;;11.69;100.00;101018.94;5269967;28;20444;-70
2021/12/30 04:46:09;;;;;;;66.97;24.85;;;;;;;11.76;100.00;101025.50;5260406;28;20028;-69
2021/12/30 04:48:40;;;;;;;69.72;26.15;;;;;;;11.75;100.00;101027.34;5257488;28;20032;-70
2021/12/30 04:51:13;;;;;;;64.25;25.13;;;;;;;11.78;100.00;101029.75;5270956;28;20378;-69
2021/12/30 04:53:49;;;;;;;68.20;25.85;;;;;;;11.80;100.00;101034.16;5270462;28;20359;-69
2021/12/30 04:56:31;;;;;;;63.03;25.83;;;;;;;11.79;100.00;101033.28;5242294;28;20040;-69
2021/12/30 04:59:07;;;;;;;72.93;28.45;;;;;;;11.78;100.00;101032.44;5257431;28;20486;-69
2021/12/30 05:01:39;;;;;;;59.50;25.33;;;;;;;11.75;100.00;101027.34;5257584;28;20028;-69
2021/12/30 05:04:10;;;;;;;72.60;28.10;;;;;;;11.72;100.00;101026.72;5283796;28;20086;-69
2021/12/30 05:06:41;;;;;;;61.45;26.90;;;;;;;11.70;100.00;101024.16;5260866;28;20024;-69
2021/12/30 05:09:12;;;;;;;59.05;26.88;;;;;;;11.75;100.00;101023.78;5261142;28;20040;-69
2021/12/30 05:11:44;;;;;;;61.70;26.40;;;;;;;11.66;100.00;101027.19;5256894;28;20024;-69
2021/12/30 05:14:15;;;;;;;58.15;25.77;;;;;;;11.74;100.00;101030.13;5258105;28;20356;-69
2021/12/30 05:16:46;;;;;;;53.95;23.55;;;;;;;11.76;100.00;101037.06;5254101;28;20049;-69
2021/12/30 05:19:18;;;;;;;46.63;22.63;;;;;;;11.82;100.00;101037.53;5261209;28;20470;-69
2021/12/30 05:21:50;;;;;;;48.33;22.52;;;;;;;11.83;100.00;101048.13;5261123;28;20234;-69
2021/12/30 05:24:21;;;;;;;47.80;21.17;;;;;;;11.86;100.00;101047.88;5258977;28;20028;-69
2021/12/30 05:26:52;;;;;;;40.88;18.73;;;;;;;11.89;100.00;101066.38;5259179;28;20135;-69
2021/12/30 05:29:24;;;;;;;33.63;17.33;;;;;;;11.90;100.00;101060.06;5253988;28;20048;-69
2021/12/30 05:31:55;;;;;;;32.85;17.17;;;;;;;11.82;100.00;101049.09;5255320;28;20037;-69
2021/12/30 05:34:26;;;;;;;26.00;14.80;;;;;;;11.89;100.00;101061.03;5261020;28;20016;-70
2021/12/30 05:36:58;;;;;;;26.63;15.68;;;;;;;11.91;100.00;101069.78;5262462;28;20112;-69
2021/12/30 05:39:30;;;;;;;25.60;15.75;;;;;;;11.88;100.00;101059.28;5255670;28;20070;-70
2021/12/30 05:42:01;;;;;;;26.85;16.02;;;;;;;11.99;100.00;101084.38;5262906;28;20506;-70
2021/12/30 05:44:33;;;;;;;25.08;15.32;;;;;;;11.96;100.00;101074.75;5260625;28;20073;-69
2021/12/30 05:47:04;;;;;;;24.67;15.30;;;;;;;11.90;100.00;101086.78;5257781;28;20024;-70
2021/12/30 05:49:35;;;;;;;20.38;13.80;;;;;;;11.99;100.00;101095.09;5270918;28;20024;-69
2021/12/30 05:52:07;;;;;;;22.95;14.63;;;;;;;11.94;100.00;101103.44;5264005;28;20403;-69
2021/12/30 05:54:40;;;;;;;22.50;14.45;;;;;;;11.99;100.00;101108.44;5254329;28;20474;-69
2021/12/30 05:57:12;;;;;;;22.00;14.32;;;;;;;11.99;100.00;101105.78;5257443;28;20055;-70
2021/12/30 05:59:43;;;;;;;26.92;15.80;;;;;;;11.96;100.00;101099.66;5261462;28;20111;-70
2021/12/30 06:02:15;;;;;;;26.48;16.80;;;;;;;11.97;100.00;101105.91;5254216;28;20052;-70
2021/12/30 06:04:47;;;;;;;28.05;17.13;;;;;;;11.96;100.00;101090.81;5254161;28;20497;-70
2021/12/30 06:07:18;;;;;;;29.88;18.88;;;;;;;11.93;100.00;101091.91;5255156;28;20567;-70
2021/12/30 06:09:50;;;;;;;30.70;18.90;;;;;;;11.98;100.00;101091.53;5254753;28;20090;-70
2021/12/30 06:12:21;;;;;;;32.00;20.13;;;;;;;11.95;100.00;101081.94;5259151;28;20029;-70
2021/12/30 06:14:52;;;;;;;33.28;21.05;;;;;;;11.94;100.00;101087.41;5252020;28;20078;-70
2021/12/30 06:17:24;;;;;;;32.05;20.70;;;;;;;11.92;100.00;101094.69;5254407;28;20471;-70
2021/12/30 06:19:55;;;;;;;28.23;19.63;;;;;;;11.91;100.00;101101.03;5250760;28;20479;-70
2021/12/30 06:22:26;;;;;;;30.20;18.80;;;;;;;11.94;100.00;101103.44;5252671;28;20033;-70
2021/12/30 06:24:57;;;;;;;28.42;18.50;;;;;;;11.87;100.00;101103.06;5249487;28;20683;-70
2021/12/30 06:27:29;;;;;;;25.20;16.17;;;;;;;11.93;100.00;101094.59;5249748;28;20041;-71
2021/12/30 06:30:00;;;;;;;24.15;15.32;;;;;;;11.84;100.00;101107.78;5247451;28;20557;-70
2021/12/30 06:32:31;;;;;;;21.50;13.73;;;;;;;11.90;100.00;101088.63;5246906;28;20056;-70
2021/12/30 06:35:07;;;;;;;20.08;12.77;;;;;;;11.93;100.00;101097.25;5250743;28;20032;-70
2021/12/30 06:37:39;;;;;;;20.50;12.32;;;;;;;11.92;100.00;101100.88;5251680;28;20129;-70
2021/12/30 06:40:13;;;;;;;19.02;11.65;;;;;;;11.90;100.00;101091.28;5249809;28;20029;-70
2021/12/30 06:42:44;;;;;;;18.23;11.80;;;;;;;11.90;100.00;101102.00;5253112;28;20033;-70
2021/12/30 06:45:16;;;;;;;17.10;11.75;;;;;;;11.94;100.00;101098.09;5254206;28;20070;-70
2021/12/30 06:47:47;;;;;;;20.38;12.02;;;;;;;11.91;100.00;101117.06;5256332;28;20094;-70
2021/12/30 06:50:22;;;;;;;16.40;10.98;;;;;;;11.88;100.00;101119.94;5260533;28;20028;-70
2021/12/30 06:52:53;;;;;;;17.23;10.70;;;;;;;11.89;100.00;101111.84;5259243;28;20102;-70
2021/12/30 06:55:25;;;;;;;16.23;9.95;;;;;;;11.87;100.00;101124.44;5269486;28;20020;-70
2021/12/30 06:57:56;;;;;;;16.60;10.18;;;;;;;11.88;100.00;101125.28;5259706;28;20029;-70
2021/12/30 07:00:28;;;;;;;15.35;8.80;;;;;;;11.87;100.00;101129.78;5261862;28;20029;-70
2021/12/30 07:02:59;;;;;;;12.77;7.90;;;;;;;11.91;100.00;101125.09;5261722;28;20086;-70
2021/12/30 07:05:30;;;;;;;13.95;8.57;;;;;;;11.87;100.00;101139.63;5264112;28;20105;-70
2021/12/30 07:08:02;;;;;;;13.27;8.10;;;;;;;11.95;100.00;101148.78;5263005;28;20107;-70
2021/12/30 07:10:33;;;;;;;12.77;7.72;;;;;;;11.93;100.00;101150.75;5264915;28;20063;-70
2021/12/30 07:13:04;;;;;;;16.13;8.27;;;;;;;11.95;100.00;101139.94;5262481;28;20028;-70
2021/12/30 07:15:36;;;;;;;12.80;8.35;;;;;;;11.96;100.00;101153.16;5256963;28;20048;-70
2021/12/30 07:18:08;;;;;;;17.70;10.45;;;;;;;11.96;100.00;101155.81;5258417;28;20547;-70
2021/12/30 07:20:39;;;;;;;19.83;10.82;;;;;;;11.97;100.00;101151.34;5260902;28;20493;-71
2021/12/30 07:23:10;;;;;;;16.85;10.82;;;;;;;11.98;100.00;101162.91;5265303;28;20086;-71
2021/12/30 07:25:42;;;;;;;20.80;11.75;;;;;;;11.93;100.00;101173.97;5264448;28;20289;-70
2021/12/30 07:28:13;;;;;;;20.42;11.50;;;;;;;12.00;100.00;101174.31;5265985;28;20164;-71
2021/12/30 07:30:44;;;;;;;19.67;11.50;;;;;;;12.01;100.00;101170.69;5265656;28;20563;-70
2021/12/30 07:33:16;;;;;;;19.73;12.45;;;;;;;12.00;100.00;101177.84;5266131;28;20055;-70
2021/12/30 07:35:47;;;;;;;18.48;11.98;;;;;;;12.04;100.00;101181.13;5262679;28;20040;-70
2021/12/30 07:38:18;;;;;;;17.67;10.93;;;;;;;12.00;100.00;101174.31;5266717;28;20405;-70
2021/12/30 07:40:50;;;;;;;16.15;10.15;;;;;;;12.02;100.00;101175.91;5263735;28;20059;-70
2021/12/30 07:43:21;;;;;;;17.48;9.93;;;;;;;12.04;100.00;101179.34;5266748;28;20055;-70
2021/12/30 07:45:52;;;;;;;16.17;9.70;;;;;;;12.03;100.00;101182.97;5271421;28;20513;-70
2021/12/30 07:48:24;;;;;;;16.63;9.45;;;;;;;12.00;100.00;101182.34;5264977;28;20024;-70
2021/12/30 07:50:55;;;;;;;16.70;10.90;;;;;;;12.00;100.00;101174.31;5270017;28;20221;-70
2021/12/30 07:53:26;;;;;;;17.48;11.07;;;;;;;12.05;100.00;101194.41;5259668;28;20108;-71
2021/12/30 07:55:58;;;;;;;16.63;10.88;;;;;;;12.08;100.00;101194.16;5262397;28;20029;-70
2021/12/30 07:58:29;;;;;;;16.88;9.88;;;;;;;12.03;100.00;101190.16;5265008;28;20036;-71
2021/12/30 08:01:01;;;;;;;16.67;10.10;;;;;;;12.01;100.00;101186.75;5261384;28;20348;-70
2021/12/30 08:03:32;;;;;;;16.55;9.40;;;;;;;11.98;100.00;101181.63;5259314;28;20528;-70
2021/12/30 08:06:03;;;;;;;13.75;8.77;;;;;;;11.95;100.00;101175.53;5257371;28;20064;-70
2021/12/30 08:08:35;;;;;;;14.82;8.48;;;;;;;11.95;100.00;101169.34;5259254;28;20273;-70
2021/12/30 08:11:06;;;;;;;11.48;7.68;;;;;;;11.94;100.00;101171.13;5256532;28;20502;-70
2021/12/30 08:13:37;;;;;;;11.30;7.55;;;;;;;11.86;100.00;101183.38;5259433;28;20032;-70
2021/12/30 08:16:09;;;;;;;10.80;6.93;;;;;;;11.85;100.00;101201.25;5258135;28;20036;-70
2021/12/30 08:18:41;;;;;;;9.23;6.95;;;;;;;11.79;100.00;101204.38;5253012;28;20036;-70
2021/12/30 08:21:13;;;;;;;10.27;6.90;;;;;;;11.75;100.00;101209.13;5255614;28;20118;-70
2021/12/30 08:23:44;;;;;;;11.38;6.32;;;;;;;11.82;100.00;101219.34;5254639;28;20485;-70
2021/12/30 08:26:16;;;;;;;10.38;6.10;;;;;;;11.82;100.00;101222.84;5257825;28;20029;-70
2021/12/30 08:28:48;;;;;;;10.20;5.25;;;;;;;11.81;100.00;101212.28;5254376;28;20036;-71
2021/12/30 08:31:19;;;;;;;9.18;5.47;;;;;;;11.82;100.00;101205.97;5256854;28;20028;-71
2021/12/30 08:33:50;;;;;;;7.78;4.40;;;;;;;11.82;100.00;101209.50;5256158;28;20025;-70
2021/12/30 08:36:22;;;;;;;9.75;5.30;;;;;;;11.86;100.00;101213.63;5257775;28;20028;-71
2021/12/30 08:38:53;;;;;;;8.00;5.10;;;;;;;11.86;100.00;101215.47;5255690;28;20025;-70
2021/12/30 08:41:24;;;;;;;10.25;5.43;;;;;;;11.84;100.00;101215.56;5253890;28;20538;-70
2021/12/30 08:43:56;;;;;;;9.65;5.75;;;;;;;11.83;100.00;101219.22;5252374;28;20029;-71
2021/12/30 08:46:27;;;;;;;11.90;5.88;;;;;;;11.86;100.00;101210.13;5253301;28;20052;-71
2021/12/30 08:48:58;;;;;;;12.05;5.75;;;;;;;11.86;100.00;101221.66;5255978;28;20049;-71
2021/12/30 08:51:30;;;;;;;9.32;5.20;;;;;;;11.90;100.00;101233.00;5253398;28;20060;-70
2021/12/30 08:54:02;;;;;;;11.35;5.65;;;;;;;11.95;100.00;101239.72;5265862;28;21489;-70
2021/12/30 08:56:33;;;;;;;10.82;5.55;;;;;;;12.01;100.00;101248.25;5246168;28;20874;-70
2021/12/30 08:59:05;;;;;;;10.40;5.03;;;;;;;12.00;100.00;101260.75;5246739;28;20622;-70
2021/12/30 09:01:36;;;;;;;11.18;5.28;;;;;;;12.04;100.00;101259.56;5249020;28;20032;-70
2021/12/30 09:04:07;;;;;;;15.32;5.90;;;;;;;12.06;100.00;101262.09;5251760;28;20020;-71
2021/12/30 09:06:38;;;;;;;12.70;6.38;;;;;;;12.06;100.00;101248.72;5262951;28;20078;-70
2021/12/30 09:09:10;;;;;;;10.90;5.68;;;;;;;12.13;100.00;101260.66;5265447;28;20087;-71
2021/12/30 09:11:41;;;;;;;12.75;6.78;;;;;;;12.14;100.00;101251.69;5256765;28;20360;-71
2021/12/30 09:14:13;;;;;;;15.20;6.18;;;;;;;12.19;100.00;101245.97;5260234;28;20051;-70
2021/12/30 09:16:45;;;;;;;12.77;5.82;;;;;;;12.20;100.00;101237.00;5270314;28;20029;-70
2021/12/30 09:19:17;;;;;;;10.77;5.47;;;;;;;12.24;100.00;101255.34;5255500;28;20029;-70
2021/12/30 09:21:48;;;;;;;11.40;5.57;;;;;;;12.32;100.00;101247.56;5258772;28;20024;-70
2021/12/30 09:24:20;;;;;;;11.35;5.38;;;;;;;12.33;100.00;101268.03;5260812;28;20021;-70
2021/12/30 09:26:51;;;;;;;9.70;4.85;;;;;;;12.36;100.00;101258.91;5273046;28;20796;-71
2021/12/30 09:29:22;;;;;;;10.75;4.95;;;;;;;12.43;100.00;101264.66;5259839;28;20383;-71
2021/12/30 09:31:54;;;;;;;13.55;5.60;;;;;;;12.40;100.00;101270.22;5258784;28;20071;-71
2021/12/30 09:34:26;;;;;;;12.32;4.28;;;;;;;12.43;100.00;101280.69;5259070;28;20029;-70
2021/12/30 09:36:57;;;;;;;10.02;5.10;;;;;;;12.40;100.00;101279.09;5264567;28;20024;-70
2021/12/30 09:39:28;;;;;;;12.23;4.70;;;;;;;12.36;100.00;101283.81;5260646;28;20111;-71
2021/12/30 09:41:59;;;;;;;12.60;4.60;;;;;;;12.37;100.00;101284.69;5259885;28;20062;-71
2021/12/30 09:44:31;;;;;;;12.18;4.88;;;;;;;12.33;100.00;101294.78;5263048;28;20033;-71
2021/12/30 09:47:02;;;;;;;13.93;4.50;;;;;;;12.34;100.00;101293.81;5263429;28;20044;-70
2021/12/30 09:49:34;;;;;;;12.25;4.78;;;;;;;12.34;100.00;101292.94;5258769;28;20040;-71
2021/12/30 09:52:05;;;;;;;14.10;5.38;;;;;;;12.38;100.00;101306.94;5259905;28;20024;-71
2021/12/30 09:54:36;;;;;;;17.38;6.13;;;;;;;12.39;100.00;101292.59;5258019;28;20127;-70
2021/12/30 09:57:08;;;;;;;15.18;5.05;;;;;;;12.31;100.00;101309.22;5261356;28;20032;-70
2021/12/30 09:59:39;;;;;;;12.93;4.97;;;;;;;12.36;100.00;101297.22;5256359;28;20040;-71
2021/12/30 10:02:10;;;;;;;13.20;5.75;;;;;;;12.37;100.00;101300.75;5256618;28;20174;-70
2021/12/30 10:04:42;;;;;;;14.30;5.47;;;;;;;12.31;100.00;101291.38;5260301;28;20055;-71
2021/12/30 10:07:21;;;;;;;15.45;5.28;;;;;;;12.34;100.00;101293.81;5265427;28;20115;-70
2021/12/30 10:09:59;;;;;;;14.25;5.18;;;;;;;12.33;100.00;101297.47;5256923;28;20056;-71
2021/12/30 10:12:44;;;;;;;12.95;4.90;;;;;;;12.32;100.00;101294.91;5265498;28;20037;-70
2021/12/30 10:15:15;;;;;;;13.73;4.75;;;;;;;12.31;100.00;101299.41;5264287;28;20024;-71
2021/12/30 10:17:55;;;;;;;16.00;4.95;;;;;;;12.39;100.00;101297.94;5262345;28;20032;-71
2021/12/30 10:20:31;;;;;;;14.20;4.80;;;;;;;12.44;100.00;101304.66;5260743;28;20055;-71
2021/12/30 10:23:13;;;;;;;13.35;4.55;;;;;;;12.45;100.00;101300.16;5260947;28;20025;-71
2021/12/30 10:25:49;;;;;;;15.02;5.13;;;;;;;12.50;100.00;101301.53;5260733;28;20231;-71
2021/12/30 10:28:31;;;;;;;20.25;5.28;;;;;;;12.49;100.00;101298.97;5262289;28;20032;-71
2021/12/30 10:31:12;;;;;;;11.73;4.32;;;;;;;12.50;100.00;101303.31;5263754;28;20475;-71
2021/12/30 10:33:59;;;;;;;12.93;4.53;;;;;;;12.46;100.00;101300.03;5269922;28;20410;-71
2021/12/30 10:36:30;;;;;;;13.10;5.20;;;;;;;12.50;100.00;101300.66;5271649;28;20760;-71
2021/12/30 10:39:20;;;;;;;13.07;4.75;;;;;;;12.48;100.00;101308.81;5264401;28;20028;-71
2021/12/30 10:42:20;;;;;;;12.57;4.70;;;;;;;12.50;100.00;101306.00;5267560;28;20032;-70
2021/12/30 10:45:04;;;;;;;11.77;5.00;;;;;;;12.58;100.00;101308.94;5260585;28;20028;-71
2021/12/30 10:47:51;;;;;;;14.45;4.40;;;;;;;12.57;100.00;101304.56;5269712;28;20032;-71
2021/12/30 10:50:23;;;;;;;13.20;4.75;;;;;;;12.68;100.00;101309.94;5271086;28;20036;-71
2021/12/30 10:52:56;;;;;;;13.70;4.45;;;;;;;12.67;100.00;101305.53;5268561;28;20043;-71
2021/12/30 10:55:32;;;;;;;13.90;4.13;;;;;;;12.69;100.00;101303.59;5277276;28;20028;-71
2021/12/30 10:58:23;;;;;;;13.95;4.60;;;;;;;12.66;100.00;101303.84;5259081;28;20029;-71
2021/12/30 11:01:13;;;;;;;15.38;4.45;;;;;;;12.69;100.00;101311.63;5267393;28;20079;-71
2021/12/30 11:03:57;;;;;;;15.43;4.15;;;;;;;12.72;100.00;101298.00;5268665;28;20052;-71
2021/12/30 11:06:29;;;;;;;13.32;3.58;;;;;;;12.75;100.00;101303.13;5268341;28;20478;-71
2021/12/30 11:09:03;;;;;;;15.73;4.50;;;;;;;12.71;100.00;101295.44;5264802;28;20040;-71
2021/12/30 11:11:35;;;;;;;;;;;;;;;12.66;100.00;101303.00;5263848;28;20454;-71
2021/12/30 11:14:12;;;;;;;12.93;4.13;;;;;;;12.71;100.00;101308.81;5263561;28;20003;-70
2021/12/30 11:17:05;;;;;;;14.55;4.45;;;;;;;12.74;100.00;101312.13;5266557;28;20033;-71
2021/12/30 11:19:43;;;;;;;12.52;4.05;;;;;;;12.82;100.00;101306.16;5261454;28;20691;-70
2021/12/30 11:22:17;;;;;;;16.95;4.68;;;;;;;12.80;100.00;101305.44;5267827;28;20445;-71
2021/12/30 11:24:51;;;;;;;13.05;4.22;;;;;;;12.85;100.00;101311.28;5276296;28;20028;-71
2021/12/30 11:27:24;;;;;;;12.52;3.50;;;;;;;12.86;100.00;101302.28;5269662;28;20079;-71
2021/12/30 11:30:17;;;;;;;14.55;3.70;;;;;;;12.85;100.00;101305.09;5263565;28;20059;-71
2021/12/30 11:32:48;;;;;;;12.63;4.05;;;;;;;12.89;100.00;101291.31;5264290;28;20036;-71
2021/12/30 11:35:24;;;;;;;13.90;3.40;;;;;;;13.02;100.00;101299.25;5263357;28;20035;-71